Time;durP1;ratioP1;P1;durP2;ratioP2;P2;SDS_P1;SDS_P2;PMS_P1;PMS_P2;Temp;Humidity;BMP_temperature;BMP_pressure;BME280_temperature;BME280_humidity;BME280_pressure;Samples;Min_cycle;Max_cycle;Signal;HPM_P1;HPM_P2
2023/12/26 00:01:29;;;;;;;16.90;16.50;;;22.50;58.50;;;;;;4993062;28;20920;-68
2023/12/26 00:03:57;;;;;;;16.90;16.50;;;22.50;58.50;;;;;;4995938;28;20450;-68
2023/12/26 00:06:24;;;;;;;17.20;16.80;;;22.50;58.60;;;;;;4995641;28;20466;-68
2023/12/26 00:08:51;;;;;;;17.53;16.93;;;22.40;58.60;;;;;;4996162;28;20475;-68
2023/12/26 00:11:18;;;;;;;17.67;17.27;;;22.40;58.60;;;;;;4993460;28;20486;-68
2023/12/26 00:13:45;;;;;;;17.73;17.30;;;22.40;58.60;;;;;;4992239;28;20501;-68
2023/12/26 00:16:12;;;;;;;17.33;16.93;;;22.40;58.60;;;;;;4995584;28;20455;-68
2023/12/26 00:18:39;;;;;;;17.00;16.60;;;22.40;58.60;;;;;;4995742;28;20787;-68
2023/12/26 00:21:07;;;;;;;18.17;17.67;;;22.40;58.70;;;;;;4995234;28;21532;-68
2023/12/26 00:23:35;;;;;;;17.57;17.10;;;22.40;58.60;;;;;;4993710;28;20447;-68
2023/12/26 00:26:02;;;;;;;18.60;18.10;;;22.40;58.80;;;;;;4995722;28;20538;-68
2023/12/26 00:28:29;;;;;;;17.33;16.93;;;22.30;58.60;;;;;;4995643;28;20446;-68
2023/12/26 00:30:56;;;;;;;17.20;16.80;;;22.40;58.70;;;;;;4995487;28;20536;-68
2023/12/26 00:33:23;;;;;;;17.17;16.77;;;22.30;58.70;;;;;;4992911;28;20521;-68
2023/12/26 00:35:50;;;;;;;17.10;16.70;;;22.30;58.70;;;;;;4995415;28;20443;-68
2023/12/26 00:38:21;;;;;;;16.73;16.33;;;22.30;58.90;;;;;;4995509;28;20529;-68
2023/12/26 00:40:48;;;;;;;16.90;16.50;;;22.30;58.90;;;;;;4987265;28;20443;-68
2023/12/26 00:43:15;;;;;;;16.73;16.33;;;22.30;59.00;;;;;;4993116;28;21028;-68
2023/12/26 00:45:42;;;;;;;17.07;16.67;;;22.30;59.00;;;;;;4995137;28;20439;-68
2023/12/26 00:48:09;;;;;;;16.77;16.37;;;22.30;59.10;;;;;;4995096;28;20525;-68
2023/12/26 00:50:41;;;;;;;17.70;17.07;;;22.20;58.90;;;;;;4995036;28;20478;-68
2023/12/26 00:53:09;;;;;;;15.80;15.40;;;22.20;58.90;;;;;;4993212;28;20443;-68
2023/12/26 00:55:37;;;;;;;15.80;15.40;;;22.20;59.00;;;;;;4995119;28;20821;-68
2023/12/26 00:58:04;;;;;;;16.70;16.30;;;22.20;59.10;;;;;;4995036;28;20962;-68
2023/12/26 01:00:31;;;;;;;17.93;17.43;;;22.20;59.00;;;;;;4994047;28;20513;-68
2023/12/26 01:02:58;;;;;;;16.80;16.40;;;22.20;59.20;;;;;;4993064;28;20509;-68
2023/12/26 01:05:26;;;;;;;17.10;16.70;;;22.20;59.20;;;;;;4994794;28;20513;-68
2023/12/26 01:07:53;;;;;;;17.63;17.10;;;22.20;59.20;;;;;;5027533;23;20848;-68
2023/12/26 01:10:20;;;;;;;17.17;16.77;;;22.20;59.30;;;;;;5014374;28;20851;-69
2023/12/26 01:12:49;;;;;;;17.67;17.27;;;22.20;59.40;;;;;;5012578;28;21014;-68
2023/12/26 01:15:16;;;;;;;16.90;16.50;;;22.20;59.50;;;;;;5014516;28;20446;-68
2023/12/26 01:17:42;;;;;;;16.50;16.10;;;22.20;59.30;;;;;;5006947;28;20523;-68
2023/12/26 01:20:11;;;;;;;16.23;15.83;;;22.10;59.30;;;;;;5014326;28;20458;-68
2023/12/26 01:22:38;;;;;;;16.47;16.07;;;22.10;59.40;;;;;;5013450;28;20434;-69
2023/12/26 01:25:05;;;;;;;19.57;19.07;;;22.10;59.60;;;;;;5014193;28;20899;-68
2023/12/26 01:27:33;;;;;;;17.87;17.37;;;22.10;59.50;;;;;;5014007;28;20462;-68
2023/12/26 01:30:02;;;;;;;17.03;16.63;;;22.10;59.60;;;;;;5013667;28;20568;-68
2023/12/26 01:32:30;;;;;;;17.43;16.93;;;22.10;59.70;;;;;;5013635;28;20477;-68
2023/12/26 01:34:56;;;;;;;17.33;16.93;;;22.10;59.60;;;;;;5014079;28;20450;-68
2023/12/26 01:37:24;;;;;;;17.10;16.70;;;22.10;59.80;;;;;;5013761;28;20864;-69
2023/12/26 01:39:51;;;;;;;16.03;15.63;;;22.10;59.70;;;;;;5013155;28;20794;-69
2023/12/26 01:42:18;;;;;;;17.57;17.10;;;22.10;59.70;;;;;;5013243;28;20496;-69
2023/12/26 01:44:45;;;;;;;15.87;15.47;;;22.10;59.70;;;;;;5013732;28;20450;-68
2023/12/26 01:47:14;;;;;;;16.37;15.93;;;22.10;59.80;;;;;;5013489;28;20474;-69
2023/12/26 01:49:40;;;;;;;16.40;16.00;;;22.10;59.90;;;;;;5012899;28;20446;-69
2023/12/26 01:52:10;;;;;;;16.50;16.10;;;22.00;59.80;;;;;;5013407;28;20478;-68
2023/12/26 01:54:39;;;;;;;16.40;16.00;;;22.00;59.70;;;;;;5013697;28;20457;-72
2023/12/26 01:57:08;;;;;;;16.63;16.23;;;22.10;60.40;;;;;;5013499;28;20477;-73
2023/12/26 01:59:37;;;;;;;16.60;16.20;;;22.10;60.40;;;;;;5013174;28;20446;-71
2023/12/26 02:02:05;;;;;;;16.20;15.80;;;22.10;60.30;;;;;;5009917;28;20526;-72
2023/12/26 02:04:34;;;;;;;16.50;16.10;;;22.20;59.90;;;;;;5011177;28;20473;-75
2023/12/26 02:07:02;;;;;;;16.00;15.60;;;22.20;59.90;;;;;;5013406;28;20469;-70
2023/12/26 02:09:30;;;;;;;15.80;15.40;;;22.30;61.40;;;;;;5013150;28;20460;-71
2023/12/26 02:12:02;;;;;;;15.63;15.23;;;22.30;60.50;;;;;;5004917;28;20504;-71
2023/12/26 02:14:32;;;;;;;15.90;15.50;;;22.30;61.70;;;;;;5013025;28;20481;-72
2023/12/26 02:17:03;;;;;;;18.50;18.00;;;22.30;61.00;;;;;;5013537;28;20458;-73
2023/12/26 02:19:30;;;;;;;15.63;15.23;;;22.30;61.30;;;;;;5013698;28;20880;-75
2023/12/26 02:22:04;;;;;;;17.07;16.47;;;22.30;60.90;;;;;;5012368;28;20482;-74
2023/12/26 02:24:34;;;;;;;17.10;16.70;;;22.30;60.90;;;;;;5012393;28;20442;-72
2023/12/26 02:27:02;;;;;;;16.63;16.20;;;22.30;60.40;;;;;;5013253;28;20535;-71
2023/12/26 02:29:32;;;;;;;16.63;16.23;;;22.30;60.80;;;;;;5017925;28;20533;-74
2023/12/26 02:32:09;;;;;;;16.70;16.30;;;22.30;60.90;;;;;;5016559;28;20501;-75
2023/12/26 02:34:46;;;;;;;16.80;16.40;;;22.30;60.10;;;;;;5012762;28;20469;-73
2023/12/26 02:37:15;;;;;;;15.90;15.50;;;22.40;59.90;;;;;;5012589;28;20472;-72
2023/12/26 02:39:50;;;;;;;16.30;15.90;;;22.40;59.70;;;;;;5012098;28;20450;-74
2023/12/26 02:42:21;;;;;;;16.40;16.00;;;22.50;59.60;;;;;;4995532;28;20462;-73
2023/12/26 02:44:52;;;;;;;16.20;15.80;;;22.50;59.70;;;;;;5012730;28;20446;-74
2023/12/26 02:47:19;;;;;;;16.20;15.80;;;22.50;59.70;;;;;;5022623;28;20466;-73
2023/12/26 02:49:47;;;;;;;16.20;15.80;;;22.50;59.40;;;;;;5029663;28;20450;-72
2023/12/26 02:52:16;;;;;;;16.37;15.97;;;22.60;59.30;;;;;;5029677;28;20481;-71
2023/12/26 02:54:56;;;;;;;16.50;16.10;;;22.60;59.20;;;;;;5024999;28;20450;-73
2023/12/26 02:57:25;;;;;;;16.40;16.00;;;22.60;59.10;;;;;;5011525;28;21047;-71
2023/12/26 02:59:55;;;;;;;16.10;15.60;;;22.60;59.00;;;;;;5012272;28;20466;-70
2023/12/26 03:02:24;;;;;;;17.10;16.70;;;22.70;59.00;;;;;;5016587;28;20458;-70
2023/12/26 03:04:56;;;;;;;16.20;15.80;;;22.70;58.90;;;;;;5019195;28;20492;-71
2023/12/26 03:07:25;;;;;;;15.80;15.30;;;22.60;58.80;;;;;;5016706;28;20532;-71
2023/12/26 03:10:03;;;;;;;16.70;16.30;;;22.70;58.80;;;;;;5012110;28;20457;-70
2023/12/26 03:12:43;;;;;;;17.07;16.67;;;22.70;58.70;;;;;;5015722;28;20868;-71
2023/12/26 03:15:18;;;;;;;16.97;16.47;;;22.60;58.60;;;;;;4998894;28;20446;-69
2023/12/26 03:17:46;;;;;;;16.60;16.20;;;22.70;58.70;;;;;;5011201;28;20836;-75
2023/12/26 03:20:14;;;;;;;16.83;16.33;;;22.70;58.60;;;;;;5012040;28;20519;-73
2023/12/26 03:22:42;;;;;;;16.57;16.17;;;22.70;58.60;;;;;;5010794;28;20456;-75
2023/12/26 03:25:11;;;;;;;16.50;16.10;;;22.70;58.70;;;;;;5011543;28;20450;-72
2023/12/26 03:27:39;;;;;;;15.83;15.43;;;22.70;58.40;;;;;;5011698;28;20923;-73
2023/12/26 03:30:16;;;;;;;17.23;16.83;;;22.70;58.30;;;;;;4993954;28;20507;-75
2023/12/26 03:32:45;;;;;;;16.30;15.90;;;22.70;58.30;;;;;;5014033;28;20481;-77
2023/12/26 03:35:14;;;;;;;16.10;15.70;;;22.70;58.30;;;;;;5015010;28;20476;-72
2023/12/26 03:37:42;;;;;;;15.90;15.40;;;22.70;58.30;;;;;;5011020;28;20977;-70
2023/12/26 03:40:18;;;;;;;15.80;15.40;;;22.80;58.40;;;;;;5011637;28;20453;-70
2023/12/26 03:42:46;;;;;;;16.53;15.83;;;22.80;58.20;;;;;;5010513;28;20442;-70
2023/12/26 03:45:14;;;;;;;16.70;16.30;;;22.80;58.10;;;;;;5011419;28;20449;-72
2023/12/26 03:47:41;;;;;;;17.30;16.80;;;22.70;58.10;;;;;;5011273;28;20553;-70
2023/12/26 03:50:10;;;;;;;16.23;15.83;;;22.80;58.10;;;;;;5011626;28;20487;-69
2023/12/26 03:52:37;;;;;;;16.60;16.10;;;22.80;58.00;;;;;;5011498;28;20833;-72
2023/12/26 03:55:05;;;;;;;16.83;16.43;;;22.80;58.00;;;;;;5011625;28;20478;-71
2023/12/26 03:57:33;;;;;;;16.10;15.70;;;22.70;57.90;;;;;;5011625;28;20512;-74
2023/12/26 04:00:00;;;;;;;16.53;16.13;;;22.80;58.20;;;;;;5011625;28;20948;-74
2023/12/26 04:02:27;;;;;;;17.43;16.93;;;22.80;57.90;;;;;;5011653;28;20508;-71
2023/12/26 04:04:54;;;;;;;16.40;16.00;;;22.90;57.80;;;;;;5011145;28;20489;-71
2023/12/26 04:07:22;;;;;;;16.70;16.20;;;23.00;58.20;;;;;;5011509;28;20528;-76
2023/12/26 04:09:53;;;;;;;17.17;16.70;;;23.10;57.50;;;;;;5011523;28;20442;-76
2023/12/26 04:12:21;;;;;;;15.90;15.50;;;23.10;57.40;;;;;;5011773;28;20477;-74
2023/12/26 04:14:51;;;;;;;17.17;16.73;;;23.10;57.20;;;;;;5011438;28;20446;-74
2023/12/26 04:17:19;;;;;;;16.10;15.70;;;23.20;57.20;;;;;;5011392;28;21035;-75
2023/12/26 04:19:52;;;;;;;18.03;17.57;;;23.20;57.00;;;;;;5011304;28;20453;-71
2023/12/26 04:22:20;;;;;;;16.80;16.40;;;23.20;57.00;;;;;;5011520;28;20887;-70
2023/12/26 04:24:49;;;;;;;17.03;16.53;;;23.10;57.10;;;;;;5011104;28;20839;-70
2023/12/26 04:27:16;;;;;;;17.20;16.80;;;23.10;57.30;;;;;;5011174;28;20494;-70
2023/12/26 04:29:53;;;;;;;16.10;15.70;;;23.10;57.30;;;;;;5011212;28;20803;-70
2023/12/26 04:32:26;;;;;;;17.10;16.70;;;23.00;57.30;;;;;;5010793;28;20485;-70
2023/12/26 04:34:54;;;;;;;15.90;15.50;;;23.00;57.30;;;;;;5013181;28;20442;-70
2023/12/26 04:37:25;;;;;;;16.10;15.70;;;23.00;57.30;;;;;;5014863;28;20465;-70
2023/12/26 04:39:53;;;;;;;17.00;16.60;;;22.90;57.20;;;;;;5014817;28;20437;-71
2023/12/26 04:42:26;;;;;;;16.50;16.10;;;22.90;57.20;;;;;;5014601;28;20813;-70
2023/12/26 04:47:38;;;;;;;16.43;16.03;;;22.90;57.20;;;;;;5014616;28;20466;-71
2023/12/26 04:50:12;;;;;;;16.33;15.93;;;22.90;57.20;;;;;;5014899;28;20441;-70
2023/12/26 04:52:41;;;;;;;16.63;16.23;;;22.90;57.30;;;;;;5014237;28;20484;-71
2023/12/26 04:55:13;;;;;;;16.13;15.73;;;22.90;57.20;;;;;;5014719;28;20446;-70
2023/12/26 04:57:43;;;;;;;16.70;16.20;;;22.80;57.10;;;;;;5013780;28;20498;-70
2023/12/26 05:00:17;;;;;;;17.60;17.10;;;22.90;57.70;;;;;;5014656;28;20478;-70
2023/12/26 05:02:48;;;;;;;17.67;17.17;;;22.90;57.10;;;;;;5012730;28;20442;-71
2023/12/26 05:05:17;;;;;;;17.40;17.00;;;22.90;57.10;;;;;;5014463;28;20442;-70
2023/12/26 05:07:47;;;;;;;19.73;19.23;;;22.90;57.20;;;;;;5013033;28;20549;-70
2023/12/26 05:10:15;;;;;;;19.77;19.27;;;22.90;57.10;;;;;;5014224;28;20458;-71
2023/12/26 05:12:43;;;;;;;18.60;18.10;;;22.90;57.10;;;;;;5013747;28;20478;-70
2023/12/26 05:15:11;;;;;;;20.33;19.83;;;22.90;57.20;;;;;;5014335;28;20442;-70
2023/12/26 05:17:44;;;;;;;19.47;18.60;;;22.90;57.30;;;;;;5013894;28;20466;-71
2023/12/26 05:20:18;;;;;;;18.50;18.00;;;22.90;57.10;;;;;;5012923;28;20450;-70
2023/12/26 05:22:47;;;;;;;18.50;18.00;;;22.90;57.20;;;;;;5013460;28;20458;-70
2023/12/26 05:27:58;;;;;;;18.50;18.00;;;22.90;57.20;;;;;;5013747;28;20474;-71
2023/12/26 05:30:25;;;;;;;18.23;17.73;;;22.90;57.20;;;;;;5013933;28;20506;-70
2023/12/26 05:32:52;;;;;;;19.27;18.77;;;22.80;57.20;;;;;;5013405;28;20536;-71
2023/12/26 05:35:20;;;;;;;20.10;19.50;;;22.80;57.20;;;;;;5014202;28;20798;-70
2023/12/26 05:37:48;;;;;;;20.50;20.00;;;22.90;57.10;;;;;;5013828;28;20462;-71
2023/12/26 05:40:15;;;;;;;19.00;18.50;;;22.80;57.10;;;;;;5013904;28;20453;-71
2023/12/26 05:42:42;;;;;;;19.70;19.20;;;22.80;57.10;;;;;;5013400;28;20533;-71
2023/12/26 05:45:09;;;;;;;18.97;18.47;;;22.90;57.20;;;;;;5013749;28;20488;-71
2023/12/26 05:47:36;;;;;;;20.50;19.90;;;22.90;57.10;;;;;;5013539;28;20524;-71
2023/12/26 05:50:04;;;;;;;17.87;17.47;;;22.90;57.10;;;;;;5013031;28;20864;-71
2023/12/26 05:52:32;;;;;;;17.40;17.00;;;22.90;57.20;;;;;;5013565;28;20474;-71
2023/12/26 05:54:59;;;;;;;19.07;18.57;;;22.90;57.10;;;;;;5013315;28;21107;-71
2023/12/26 05:57:26;;;;;;;18.10;17.60;;;22.80;57.10;;;;;;5013433;28;20477;-71
2023/12/26 05:59:53;;;;;;;21.87;21.27;;;22.90;57.20;;;;;;5012927;28;20492;-71
2023/12/26 06:02:20;;;;;;;19.57;19.07;;;22.90;57.10;;;;;;5013348;28;20449;-71
2023/12/26 06:04:47;;;;;;;20.50;20.00;;;22.90;57.70;;;;;;5013318;28;20504;-71
2023/12/26 06:07:14;;;;;;;20.60;20.03;;;22.80;57.10;;;;;;5013042;28;20470;-71
2023/12/26 06:09:41;;;;;;;20.27;19.77;;;22.90;57.20;;;;;;5008674;28;20446;-71
2023/12/26 06:12:08;;;;;;;21.33;20.73;;;22.90;57.30;;;;;;5013309;28;20450;-71
2023/12/26 06:14:35;;;;;;;18.10;17.70;;;22.90;57.30;;;;;;5013287;28;21085;-71
2023/12/26 06:17:02;;;;;;;19.23;18.70;;;22.90;57.30;;;;;;5004943;28;21012;-71
2023/12/26 06:19:29;;;;;;;19.10;18.60;;;22.90;57.50;;;;;;5012883;28;20787;-71
2023/12/26 06:21:56;;;;;;;19.17;18.67;;;22.90;57.40;;;;;;5013017;28;20803;-71
2023/12/26 06:24:23;;;;;;;18.47;17.97;;;22.90;57.50;;;;;;5013039;28;20446;-71
2023/12/26 06:26:51;;;;;;;20.63;20.10;;;22.90;57.40;;;;;;5012793;28;20434;-71
2023/12/26 06:29:18;;;;;;;19.40;18.90;;;22.90;57.50;;;;;;5012443;28;20442;-71
2023/12/26 06:31:46;;;;;;;20.00;19.50;;;22.90;57.40;;;;;;5012854;28;20868;-71
2023/12/26 06:34:12;;;;;;;18.80;18.30;;;22.90;57.40;;;;;;5012651;28;20488;-71
2023/12/26 06:36:40;;;;;;;20.53;19.83;;;22.90;57.40;;;;;;5012525;28;20450;-71
2023/12/26 06:39:07;;;;;;;20.50;20.00;;;22.90;57.40;;;;;;5012451;28;20504;-71
2023/12/26 06:41:34;;;;;;;18.80;18.30;;;22.90;57.50;;;;;;5012796;28;20523;-71
2023/12/26 06:44:03;;;;;;;19.03;18.53;;;22.90;57.50;;;;;;5012542;28;20941;-71
2023/12/26 06:46:29;;;;;;;18.50;17.90;;;22.90;57.50;;;;;;5012571;28;20941;-71
2023/12/26 06:48:57;;;;;;;19.20;18.70;;;22.90;57.60;;;;;;5012072;28;20884;-71
2023/12/26 06:51:24;;;;;;;19.47;18.97;;;22.90;57.60;;;;;;5012610;28;20489;-71
2023/12/26 06:53:51;;;;;;;19.77;19.27;;;22.90;57.60;;;;;;5012329;28;21012;-71
2023/12/26 06:56:18;;;;;;;20.20;19.60;;;22.90;57.60;;;;;;5011436;28;20482;-71
2023/12/26 06:58:45;;;;;;;18.77;18.27;;;22.90;57.60;;;;;;5011903;28;20474;-71
2023/12/26 07:01:14;;;;;;;20.90;20.30;;;22.90;57.60;;;;;;5012340;28;20524;-71
2023/12/26 07:03:41;;;;;;;19.80;19.30;;;22.90;57.60;;;;;;5012205;28;20442;-71
2023/12/26 07:06:08;;;;;;;21.73;21.13;;;22.90;57.60;;;;;;5012015;28;20525;-71
2023/12/26 07:08:35;;;;;;;21.60;21.00;;;22.90;57.60;;;;;;5022337;23;20552;-72
2023/12/26 07:11:02;;;;;;;20.33;19.83;;;22.90;57.60;;;;;;4992659;28;20934;-72
2023/12/26 07:13:28;;;;;;;22.50;21.90;;;22.90;57.60;;;;;;4992488;28;20478;-72
2023/12/26 07:15:55;;;;;;;21.73;21.13;;;22.90;57.50;;;;;;4992504;28;20865;-72
2023/12/26 07:18:24;;;;;;;20.70;20.20;;;22.90;57.50;;;;;;4987239;28;21024;-73
2023/12/26 07:20:51;;;;;;;20.30;19.80;;;22.90;57.50;;;;;;4992609;28;20459;-72
2023/12/26 07:23:18;;;;;;;20.30;19.80;;;22.90;57.50;;;;;;4992369;28;20443;-72
2023/12/26 07:25:45;;;;;;;21.83;21.23;;;22.90;57.60;;;;;;4992301;28;20877;-72
2023/12/26 07:28:14;;;;;;;21.47;20.87;;;22.90;57.70;;;;;;4992218;28;20470;-72
2023/12/26 07:30:41;;;;;;;22.10;21.50;;;23.00;57.70;;;;;;4992349;28;20447;-72
2023/12/26 07:33:08;;;;;;;19.30;18.80;;;23.00;57.90;;;;;;4992076;28;20540;-72
2023/12/26 07:35:37;;;;;;;20.00;19.50;;;23.00;57.80;;;;;;4992235;28;20447;-73
2023/12/26 07:38:05;;;;;;;22.90;22.23;;;22.90;57.80;;;;;;4991689;28;20523;-72
2023/12/26 07:40:33;;;;;;;21.93;21.33;;;23.00;58.00;;;;;;4992352;28;20447;-72
2023/12/26 07:43:00;;;;;;;20.97;20.47;;;23.00;58.60;;;;;;4992089;28;20822;-72
2023/12/26 07:45:27;;;;;;;20.33;19.83;;;23.00;58.50;;;;;;4992284;28;20447;-72
2023/12/26 07:47:54;;;;;;;21.97;21.27;;;23.00;57.80;;;;;;4991757;28;20462;-72
2023/12/26 07:50:22;;;;;;;22.90;22.20;;;23.00;57.80;;;;;;4992291;28;20510;-72
2023/12/26 07:52:50;;;;;;;20.20;19.70;;;23.00;57.90;;;;;;4992019;28;20561;-73
2023/12/26 07:55:17;;;;;;;21.23;20.63;;;23.00;57.80;;;;;;4992074;28;20447;-72
2023/12/26 07:57:44;;;;;;;20.43;19.90;;;23.00;57.90;;;;;;4991473;28;20466;-72
2023/12/26 08:00:13;;;;;;;22.10;21.50;;;23.00;57.90;;;;;;4992045;28;20442;-72
2023/12/26 08:02:40;;;;;;;23.60;23.00;;;23.00;58.00;;;;;;4991937;28;20451;-72
2023/12/26 08:05:07;;;;;;;22.00;21.40;;;23.00;57.90;;;;;;4983529;28;20454;-72
2023/12/26 08:07:34;;;;;;;24.27;23.57;;;23.00;58.00;;;;;;4991831;28;21016;-72
2023/12/26 08:10:02;;;;;;;25.27;24.57;;;23.00;57.90;;;;;;4994046;28;20450;-72
2023/12/26 08:12:29;;;;;;;21.50;20.90;;;23.00;58.00;;;;;;4995756;28;20447;-72
2023/12/26 08:14:56;;;;;;;21.90;21.30;;;23.10;58.20;;;;;;4995398;28;20497;-72
2023/12/26 08:17:23;;;;;;;21.83;21.13;;;23.10;58.00;;;;;;4995828;28;20459;-72
2023/12/26 08:19:50;;;;;;;22.07;21.47;;;23.10;58.00;;;;;;4995590;28;20443;-72
2023/12/26 08:22:17;;;;;;;21.20;20.60;;;23.10;58.00;;;;;;4995621;28;20474;-72
2023/12/26 08:24:44;;;;;;;22.10;21.50;;;23.00;58.00;;;;;;4995092;28;20835;-72
2023/12/26 08:27:12;;;;;;;23.97;23.27;;;23.10;58.10;;;;;;4995555;28;20458;-71
2023/12/26 08:29:39;;;;;;;22.63;22.00;;;23.10;58.20;;;;;;4995606;28;20450;-72
2023/12/26 08:32:06;;;;;;;23.40;22.70;;;23.10;58.20;;;;;;4995411;28;20496;-72
2023/12/26 08:34:33;;;;;;;24.73;24.03;;;23.10;58.20;;;;;;4995110;28;20482;-72
2023/12/26 08:37:00;;;;;;;23.00;22.40;;;23.10;58.20;;;;;;4995324;28;20454;-72
2023/12/26 08:39:27;;;;;;;23.23;22.63;;;23.10;58.30;;;;;;4995211;28;20504;-72
2023/12/26 08:41:54;;;;;;;22.30;21.70;;;23.10;58.10;;;;;;4995228;28;20438;-72
2023/12/26 08:44:23;;;;;;;25.43;24.73;;;23.10;58.10;;;;;;4994800;28;20501;-72
2023/12/26 08:46:51;;;;;;;23.80;23.20;;;23.20;58.20;;;;;;4995130;28;20938;-72
2023/12/26 08:49:18;;;;;;;24.07;23.27;;;23.20;58.20;;;;;;4995211;28;20977;-71
2023/12/26 08:51:45;;;;;;;24.17;23.47;;;23.10;58.10;;;;;;4995034;28;20506;-72
2023/12/26 08:54:13;;;;;;;24.40;23.70;;;23.20;58.30;;;;;;4994968;28;20470;-75
2023/12/26 08:56:40;;;;;;;24.00;23.30;;;23.20;58.30;;;;;;4995551;28;20443;-68
2023/12/26 08:59:07;;;;;;;23.30;22.60;;;23.20;58.30;;;;;;4994790;28;20498;-69
2023/12/26 09:01:35;;;;;;;25.00;24.30;;;23.30;58.50;;;;;;4995011;28;20443;-72
2023/12/26 09:04:03;;;;;;;24.90;24.20;;;23.30;58.50;;;;;;4994583;28;20450;-76
2023/12/26 09:06:30;;;;;;;23.17;22.57;;;23.40;58.70;;;;;;4995076;28;20443;-74
2023/12/26 09:08:57;;;;;;;25.40;24.70;;;23.40;58.20;;;;;;4994775;28;20474;-72
2023/12/26 09:11:24;;;;;;;22.60;22.00;;;23.40;58.00;;;;;;4994921;28;20447;-71
2023/12/26 09:13:52;;;;;;;24.33;23.63;;;23.40;58.00;;;;;;4989057;28;20472;-71
2023/12/26 09:16:18;;;;;;;23.40;22.70;;;23.40;57.90;;;;;;4987192;28;20497;-72
2023/12/26 09:18:47;;;;;;;24.30;23.60;;;23.40;58.00;;;;;;4976544;28;20463;-73
2023/12/26 09:21:15;;;;;;;22.90;22.30;;;23.40;58.00;;;;;;4974861;28;20931;-70
2023/12/26 09:23:42;;;;;;;22.00;21.37;;;23.50;58.30;;;;;;4977217;28;20435;-74
2023/12/26 09:26:09;;;;;;;22.07;21.47;;;23.50;58.40;;;;;;4988235;28;20467;-74
2023/12/26 09:28:38;;;;;;;22.70;22.10;;;23.50;58.10;;;;;;4978649;28;21029;-74
2023/12/26 09:31:05;;;;;;;24.20;23.40;;;23.50;58.00;;;;;;4997172;28;20521;-72
2023/12/26 09:33:32;;;;;;;23.60;22.90;;;23.50;57.90;;;;;;4997748;28;20490;-74
2023/12/26 09:36:01;;;;;;;24.80;24.10;;;23.60;58.10;;;;;;4994959;28;20451;-75
2023/12/26 09:38:27;;;;;;;23.23;22.60;;;23.60;57.90;;;;;;4995523;28;20974;-73
2023/12/26 09:40:55;;;;;;;22.00;21.30;;;23.60;57.90;;;;;;4994858;28;20446;-77
2023/12/26 09:43:22;;;;;;;23.10;22.50;;;23.70;58.20;;;;;;4986624;28;20435;-76
2023/12/26 09:45:49;;;;;;;24.70;23.90;;;23.70;57.90;;;;;;4975100;28;20499;-74
2023/12/26 09:48:16;;;;;;;24.30;23.43;;;23.70;57.70;;;;;;4989352;28;20459;-74
2023/12/26 09:50:44;;;;;;;24.67;23.97;;;23.70;57.80;;;;;;4994471;28;20546;-74
2023/12/26 09:53:14;;;;;;;24.20;23.50;;;23.80;57.90;;;;;;4994328;28;20509;-73
2023/12/26 09:55:41;;;;;;;24.07;23.37;;;23.80;57.70;;;;;;4994332;28;20439;-73
2023/12/26 09:58:08;;;;;;;25.63;24.93;;;23.80;57.40;;;;;;4986919;28;20512;-68
2023/12/26 10:00:39;;;;;;;23.13;22.43;;;23.80;57.50;;;;;;4980297;28;20870;-78
2023/12/26 10:03:11;;;;;;;20.83;20.23;;;23.90;57.50;;;;;;4993014;28;20506;-76
2023/12/26 10:05:39;;;;;;;20.77;20.17;;;23.90;57.30;;;;;;4994020;28;20606;-77
2023/12/26 10:08:09;;;;;;;20.47;19.97;;;23.90;57.30;;;;;;4992202;28;21017;-76
2023/12/26 10:10:42;;;;;;;21.50;20.90;;;23.90;57.00;;;;;;4994826;28;20443;-72
2023/12/26 10:13:22;;;;;;;23.17;22.27;;;24.00;57.60;;;;;;4993802;28;20927;-74
2023/12/26 10:15:54;;;;;;;22.80;22.20;;;24.00;57.40;;;;;;4987963;28;20817;-71
2023/12/26 10:18:23;;;;;;;23.33;22.63;;;24.00;57.40;;;;;;4964072;28;20808;-75
2023/12/26 10:20:57;;;;;;;25.00;24.00;;;24.00;57.20;;;;;;4974146;28;20452;-77
2023/12/26 10:23:24;;;;;;;22.70;22.10;;;24.00;57.00;;;;;;4974114;28;20522;-76
2023/12/26 10:26:01;;;;;;;24.37;23.67;;;24.10;57.00;;;;;;4974345;28;20539;-74
2023/12/26 10:28:30;;;;;;;23.93;23.20;;;24.10;56.60;;;;;;4974677;28;20470;-76
2023/12/26 10:31:10;;;;;;;23.47;22.80;;;24.10;56.80;;;;;;4974480;28;20444;-76
2023/12/26 10:33:41;;;;;;;21.47;20.77;;;24.10;56.60;;;;;;4973421;28;20491;-70
2023/12/26 10:36:10;;;;;;;20.97;20.37;;;24.10;56.50;;;;;;4975177;28;20531;-71
2023/12/26 10:38:45;;;;;;;22.27;21.67;;;24.10;56.80;;;;;;4975106;28;20559;-73
2023/12/26 10:41:23;;;;;;;22.90;22.30;;;24.20;57.00;;;;;;4973879;28;20530;-73
2023/12/26 10:43:55;;;;;;;23.83;23.10;;;24.20;56.70;;;;;;4973804;28;20452;-72
2023/12/26 10:46:23;;;;;;;23.70;23.00;;;24.20;56.70;;;;;;4974512;28;20847;-69
2023/12/26 10:48:54;;;;;;;23.47;22.60;;;24.20;56.30;;;;;;4984154;28;20458;-68
2023/12/26 10:51:25;;;;;;;25.17;24.47;;;24.20;56.10;;;;;;4993140;28;20449;-67
2023/12/26 10:53:59;;;;;;;23.23;22.63;;;24.30;56.40;;;;;;4993061;28;20479;-68
2023/12/26 10:56:29;;;;;;;22.77;22.17;;;24.30;56.20;;;;;;4991627;28;20505;-68
2023/12/26 10:59:03;;;;;;;24.40;23.70;;;24.30;55.90;;;;;;4992873;28;20517;-68
2023/12/26 13:54:19;;;;;;;12.73;12.27;;;20.70;45.60;;;;;;4974779;28;20391;-68
2023/12/26 13:57:23;;;;;;;13.10;12.50;;;20.60;44.80;;;;;;4974730;28;20935;-67
2023/12/26 14:00:27;;;;;;;13.00;12.37;;;20.40;44.50;;;;;;4974744;28;20530;-67
2023/12/26 14:03:31;;;;;;;13.50;12.87;;;20.30;45.00;;;;;;4984005;28;20525;-67
2023/12/26 14:06:35;;;;;;;12.80;12.00;;;20.10;44.70;;;;;;4994177;28;20997;-67
2023/12/26 14:09:39;;;;;;;12.87;12.07;;;20.10;45.00;;;;;;4993824;28;20501;-67
2023/12/26 14:12:43;;;;;;;12.13;11.63;;;20.00;44.70;;;;;;4993863;28;20526;-67
2023/12/26 14:15:47;;;;;;;11.70;11.30;;;19.80;44.80;;;;;;4982216;28;20570;-67
2023/12/26 14:18:51;;;;;;;10.57;10.05;;;19.70;44.50;;;;;;4986790;28;20519;-71
2023/12/26 14:21:55;;;;;;;11.43;11.13;;;19.80;46.90;;;;;;4992340;28;20282;-66
2023/12/26 14:24:59;;;;;;;12.43;11.27;;;20.30;46.70;;;;;;4982729;28;20994;-70
2023/12/26 14:28:03;;;;;;;22.77;19.90;;;20.70;46.80;;;;;;4991581;28;20561;-68
2023/12/26 14:31:07;;;;;;;29.70;26.60;;;20.90;47.10;;;;;;4993547;28;21013;-68
2023/12/26 14:34:12;;;;;;;36.78;28.52;;;21.10;47.40;;;;;;4992539;28;20543;-68
2023/12/26 14:37:16;;;;;;;38.97;31.27;;;21.20;47.90;;;;;;4993474;28;20789;-68
2023/12/26 14:40:21;;;;;;;49.47;44.43;;;21.30;48.00;;;;;;4993366;28;20871;-68
2023/12/26 14:43:25;;;;;;;37.43;32.47;;;21.40;48.50;;;;;;4993425;28;20819;-68
2023/12/26 14:46:30;;;;;;;38.83;34.33;;;21.50;48.70;;;;;;4985030;28;21018;-69
2023/12/26 14:49:34;;;;;;;33.17;29.80;;;21.40;49.10;;;;;;4977571;28;20575;-68
2023/12/26 14:52:38;;;;;;;32.77;28.33;;;21.50;49.20;;;;;;4980163;28;21171;-68
2023/12/26 14:55:43;;;;;;;30.47;27.47;;;21.60;49.20;;;;;;4992101;28;21116;-67
2023/12/26 14:58:47;;;;;;;30.37;27.77;;;21.60;49.20;;;;;;4993105;28;20907;-67
2023/12/26 15:01:51;;;;;;;46.63;32.63;;;21.60;49.20;;;;;;4993297;28;20448;-67
2023/12/26 15:04:26;;;;;;;43.50;35.53;;;21.60;49.30;;;;;;4986195;28;20788;-68
2023/12/26 15:06:54;;;;;;;35.80;31.27;;;21.70;49.50;;;;;;4971114;28;20451;-68
2023/12/26 15:09:22;;;;;;;39.93;35.90;;;21.70;50.20;;;;;;4973363;28;20451;-68
2023/12/26 15:11:49;;;;;;;36.73;32.80;;;21.70;49.80;;;;;;4974084;28;20502;-67
2023/12/26 15:14:17;;;;;;;37.67;31.43;;;21.80;49.80;;;;;;4988520;28;20486;-67
2023/12/26 15:16:44;;;;;;;33.33;29.67;;;21.80;49.80;;;;;;4992405;28;20458;-67
2023/12/26 15:19:11;;;;;;;38.30;30.97;;;21.80;50.10;;;;;;4977550;28;20507;-67
2023/12/26 15:21:43;;;;;;;32.77;29.30;;;21.80;50.10;;;;;;4973477;28;20447;-67
2023/12/26 15:24:11;;;;;;;33.57;30.10;;;21.80;50.10;;;;;;4974282;28;20443;-67
2023/12/26 15:26:38;;;;;;;36.77;32.40;;;21.80;50.20;;;;;;4973076;28;21296;-67
2023/12/26 15:29:05;;;;;;;39.93;35.73;;;21.80;50.40;;;;;;4982109;28;20826;-67
2023/12/26 15:31:33;;;;;;;40.47;36.07;;;21.80;50.50;;;;;;4992857;28;20450;-67
2023/12/26 15:34:01;;;;;;;41.60;37.90;;;21.90;50.70;;;;;;4992276;28;20529;-67
2023/12/26 15:36:28;;;;;;;44.53;40.17;;;21.90;50.80;;;;;;4992388;28;20442;-67
2023/12/26 15:38:56;;;;;;;53.57;47.73;;;21.90;50.90;;;;;;4991640;28;20510;-67
2023/12/26 15:41:24;;;;;;;58.10;51.63;;;21.90;50.90;;;;;;4992544;28;20805;-67
2023/12/26 15:43:52;;;;;;;61.97;55.27;;;21.90;51.10;;;;;;4992669;28;20446;-67
2023/12/26 15:46:20;;;;;;;67.80;60.63;;;22.00;51.40;;;;;;4992357;28;20534;-67